Time;durP1;ratioP1;P1;durP2;ratioP2;P2;SDS_P1;SDS_P2;PMS_P1;PMS_P2;Temp;Humidity;BMP_temperature;BMP_pressure;BME280_temperature;BME280_humidity;BME280_pressure;Samples;Min_cycle;Max_cycle;Signal;HPM_P1;HPM_P2
2022/04/29 00:01:14;;;;;;;11.70;7.55;;;;;;;7.12;nan;103008.13;5033909;28;20043;-48
2022/04/29 00:03:40;;;;;;;9.73;6.72;;;;;;;7.01;nan;102987.00;5033288;28;20087;-46
2022/04/29 00:06:05;;;;;;;11.32;7.10;;;;;;;7.00;nan;102994.84;5033174;28;20377;-49
2022/04/29 00:08:30;;;;;;;10.38;6.93;;;;;;;7.12;nan;103000.28;5033446;28;20068;-50
2022/04/29 00:10:56;;;;;;;9.27;6.10;;;;;;;7.33;nan;103038.16;5033600;28;20034;-48
2022/04/29 00:13:22;;;;;;;11.02;6.07;;;;;;;7.08;nan;102995.84;5015728;28;20068;-50
2022/04/29 00:15:47;;;;;;;9.80;5.95;;;;;;;7.30;nan;103045.97;5033305;28;20042;-48
2022/04/29 00:18:13;;;;;;;10.07;5.10;;;;;;;7.25;nan;103042.41;5030111;28;20029;-47
2022/04/29 00:20:38;;;;;;;10.75;4.43;;;;;;;6.89;nan;102972.84;5012182;28;20030;-47
2022/04/29 00:23:04;;;;;;;13.80;6.68;;;;;;;6.98;nan;102984.31;5021716;28;20400;-47
2022/04/29 00:25:29;;;;;;;7.20;4.57;;;;;;;7.26;nan;103038.03;5032892;28;20488;-47
2022/04/29 00:27:55;;;;;;;7.72;4.50;;;;;;;7.18;nan;103031.81;5033041;28;20076;-53
2022/04/29 00:30:21;;;;;;;9.75;4.07;;;;;;;7.20;nan;103043.19;5014928;28;20034;-48
2022/04/29 00:32:47;;;;;;;13.15;4.80;;;;;;;7.17;nan;103041.41;5032716;28;20041;-51
2022/04/29 00:35:13;;;;;;;7.55;3.92;;;;;;;6.87;nan;102991.13;5024813;28;20408;-49
2022/04/29 00:37:46;;;;;;;10.23;4.65;;;;;;;7.15;nan;103050.09;5024936;28;20061;-47
2022/04/29 00:40:16;;;;;;;9.77;4.65;;;;;;;6.79;nan;102971.78;5030800;28;20038;-46
2022/04/29 00:42:42;;;;;;;7.18;4.28;;;;;;;6.74;nan;102965.63;5032936;28;20075;-51
2022/04/29 00:45:08;;;;;;;9.63;4.88;;;;;;;6.67;nan;102967.22;5032796;28;20037;-46
2022/04/29 00:47:33;;;;;;;8.45;4.70;;;;;;;7.06;nan;103029.88;5032754;28;20037;-48
2022/04/29 00:49:58;;;;;;;10.98;4.95;;;;;;;6.58;nan;102961.84;5032821;28;20387;-51
2022/04/29 00:52:24;;;;;;;14.20;6.38;;;;;;;6.63;nan;102959.28;5031914;28;20484;-53
2022/04/29 00:55:00;;;;;;;11.20;5.30;;;;;;;7.07;nan;103039.47;5032594;28;20060;-49
2022/04/29 00:57:39;;;;;;;7.05;4.38;;;;;;;7.01;nan;103036.75;5032573;28;20044;-48
2022/04/29 01:00:08;;;;;;;12.65;5.65;;;;;;;6.89;nan;103015.59;5031024;28;20026;-49
2022/04/29 01:02:41;;;;;;;12.27;5.57;;;;;;;7.00;nan;103024.53;5032270;28;20573;-48
2022/04/29 01:05:12;;;;;;;10.65;4.93;;;;;;;6.90;nan;102995.53;5020328;28;20374;-49
2022/04/29 01:07:38;;;;;;;;;;;;;;;6.98;nan;103023.59;5032786;28;20052;-49
2022/04/29 01:10:06;;;;;;;10.73;5.55;;;;;;;6.97;nan;103028.81;5032158;28;20355;-53
2022/04/29 01:12:34;;;;;;;10.50;6.25;;;;;;;6.50;nan;102942.50;5032156;28;20036;-47
2022/04/29 01:15:03;;;;;;;9.80;5.60;;;;;;;6.87;nan;103017.31;5014804;28;20343;-49
2022/04/29 01:17:30;;;;;;;15.50;7.00;;;;;;;6.94;nan;103021.81;5032027;28;20037;-48
2022/04/29 01:19:55;;;;;;;8.32;5.88;;;;;;;6.56;nan;102945.25;5014610;28;20520;-53
2022/04/29 01:22:20;;;;;;;11.27;5.70;;;;;;;6.71;nan;102974.25;5032188;28;20033;-50
2022/04/29 01:24:50;;;;;;;10.07;6.75;;;;;;;6.88;nan;103008.59;5032082;28;20487;-50
2022/04/29 01:27:15;;;;;;;11.77;6.03;;;;;;;6.90;nan;103004.25;5031841;28;20065;-49
2022/04/29 01:29:41;;;;;;;17.95;6.78;;;;;;;6.86;nan;102994.59;5031823;28;20122;-46
2022/04/29 01:32:11;;;;;;;9.07;6.50;;;;;;;6.88;nan;103003.38;5033360;28;20029;-51
2022/04/29 01:34:37;;;;;;;9.75;6.63;;;;;;;6.58;nan;102955.72;5014137;28;20445;-49
2022/04/29 01:37:03;;;;;;;10.43;6.38;;;;;;;6.65;nan;102961.09;5010621;28;20041;-48
2022/04/29 01:39:29;;;;;;;9.15;6.25;;;;;;;6.51;nan;102931.16;5026074;28;20057;-49
2022/04/29 01:41:54;;;;;;;9.85;6.72;;;;;;;6.91;nan;102999.91;5032093;28;20139;-46
2022/04/29 01:44:19;;;;;;;11.80;6.65;;;;;;;6.89;nan;102994.63;5014173;28;20508;-45
2022/04/29 01:46:46;;;;;;;12.38;6.70;;;;;;;6.51;nan;102938.16;5032000;28;20040;-48
2022/04/29 01:49:11;;;;;;;10.30;6.38;;;;;;;6.40;nan;102919.66;5031808;28;20037;-46
2022/04/29 01:51:37;;;;;;;11.25;6.57;;;;;;;6.79;nan;102988.38;5031651;28;20377;-49
2022/04/29 01:54:02;;;;;;;16.52;7.03;;;;;;;6.46;nan;102924.09;5010722;28;20042;-49
2022/04/29 01:56:33;;;;;;;11.57;6.65;;;;;;;6.72;nan;102964.69;5031729;28;20091;-50
2022/04/29 01:59:00;;;;;;;12.10;6.63;;;;;;;6.77;nan;102971.75;5031808;28;20034;-48
2022/04/29 02:01:27;;;;;;;13.00;6.82;;;;;;;6.46;nan;102914.53;5031981;28;20039;-50
2022/04/29 02:03:52;;;;;;;12.80;7.18;;;;;;;6.36;nan;102907.38;5035058;28;20030;-51
2022/04/29 02:06:17;;;;;;;11.55;6.38;;;;;;;6.69;nan;102977.72;5031459;28;20399;-47
2022/04/29 02:08:42;;;;;;;15.82;7.80;;;;;;;6.67;nan;102979.44;5016017;28;20033;-48
2022/04/29 02:11:08;;;;;;;13.30;6.97;;;;;;;6.66;nan;102977.66;5031530;28;20083;-47
2022/04/29 02:13:33;;;;;;;13.32;7.55;;;;;;;6.66;nan;102977.66;5031453;28;20033;-47
2022/04/29 02:15:59;;;;;;;14.98;7.80;;;;;;;6.55;nan;102963.50;5034128;28;20036;-45
2022/04/29 02:18:24;;;;;;;11.27;7.88;;;;;;;6.63;nan;102980.22;5035471;28;20112;-54
2022/04/29 02:20:49;;;;;;;15.48;7.95;;;;;;;6.34;nan;102924.75;5035844;28;20043;-48
2022/04/29 02:23:15;;;;;;;11.02;8.55;;;;;;;6.61;nan;102982.81;5035414;28;20051;-49
2022/04/29 02:25:40;;;;;;;12.75;7.45;;;;;;;6.57;nan;102983.63;5035048;28;20037;-47
2022/04/29 02:28:05;;;;;;;12.35;7.13;;;;;;;6.56;nan;102981.88;5037128;28;20033;-50
2022/04/29 02:30:33;;;;;;;12.32;7.80;;;;;;;6.55;nan;102987.94;5035357;28;20033;-47
2022/04/29 02:32:58;;;;;;;10.90;7.93;;;;;;;6.21;nan;102922.78;5017361;28;20095;-46
2022/04/29 02:35:23;;;;;;;9.13;6.60;;;;;;;6.11;nan;102908.66;5035077;28;20033;-52
2022/04/29 02:37:49;;;;;;;12.35;7.70;;;;;;;6.55;nan;102994.91;5017011;28;20060;-51
2022/04/29 02:40:14;;;;;;;17.50;8.55;;;;;;;6.49;nan;102982.59;5035067;28;20029;-49
2022/04/29 02:42:40;;;;;;;15.13;8.00;;;;;;;6.53;nan;102997.50;5035355;28;20044;-48
2022/04/29 02:45:06;;;;;;;9.77;7.13;;;;;;;6.12;nan;102906.94;5034903;28;20051;-47
2022/04/29 02:47:31;;;;;;;13.55;7.40;;;;;;;6.19;nan;102904.44;5024655;28;20064;-48
2022/04/29 02:49:58;;;;;;;11.88;7.78;;;;;;;6.13;nan;102901.72;4997583;28;20092;-53
2022/04/29 02:52:23;;;;;;;11.93;7.28;;;;;;;6.16;nan;102899.16;5034283;28;20483;-49
2022/04/29 02:54:49;;;;;;;15.02;8.85;;;;;;;6.42;nan;102943.22;5034695;28;20065;-52
2022/04/29 02:57:14;;;;;;;15.63;8.23;;;;;;;6.11;nan;102886.84;5034710;28;20037;-46
2022/04/29 02:59:40;;;;;;;12.90;7.82;;;;;;;6.49;nan;102961.66;5040203;28;20068;-49
2022/04/29 03:02:05;;;;;;;13.68;7.90;;;;;;;6.50;nan;102960.81;5034892;28;20040;-47
2022/04/29 03:04:31;;;;;;;13.45;8.73;;;;;;;6.17;nan;102907.88;5034710;28;20464;-49
2022/04/29 03:06:56;;;;;;;12.07;7.45;;;;;;;6.42;nan;102967.63;5034829;28;20155;-45
2022/04/29 03:09:21;;;;;;;13.25;7.68;;;;;;;6.10;nan;102903.41;5034562;28;20044;-46
2022/04/29 03:11:50;;;;;;;10.30;7.88;;;;;;;6.42;nan;102957.16;5034682;28;20071;-49
2022/04/29 03:14:15;;;;;;;10.43;6.80;;;;;;;6.41;nan;102967.63;5034371;28;20120;-46
2022/04/29 03:16:41;;;;;;;11.27;6.57;;;;;;;6.41;nan;102965.00;5034439;28;20167;-49
2022/04/29 03:19:06;;;;;;;15.40;8.00;;;;;;;6.27;nan;102932.47;5016622;28;20477;-51
2022/04/29 03:21:33;;;;;;;14.98;8.20;;;;;;;6.38;nan;102964.94;5009098;28;20116;-51
2022/04/29 03:23:59;;;;;;;14.43;7.95;;;;;;;6.36;nan;102958.81;5004395;28;20039;-46
2022/04/29 03:26:25;;;;;;;10.82;7.03;;;;;;;5.99;nan;102899.69;5034343;28;20404;-52
2022/04/29 03:28:50;;;;;;;10.60;7.65;;;;;;;6.07;nan;102911.19;5033076;28;20037;-48
2022/04/29 03:31:15;;;;;;;12.43;6.95;;;;;;;5.91;nan;102883.00;5034321;28;20045;-47
2022/04/29 03:33:41;;;;;;;13.20;7.82;;;;;;;5.98;nan;102897.94;5013116;28;20042;-50
2022/04/29 03:36:07;;;;;;;12.90;6.90;;;;;;;6.17;nan;102927.06;5030797;28;20389;-53
2022/04/29 03:38:33;;;;;;;9.82;6.90;;;;;;;6.25;nan;102945.50;5032700;28;20049;-49
2022/04/29 03:40:58;;;;;;;12.25;7.32;;;;;;;5.99;nan;102889.22;5013161;28;20069;-48
2022/04/29 03:43:24;;;;;;;17.75;8.30;;;;;;;6.31;nan;102952.59;5025781;28;20053;-47
2022/04/29 03:45:50;;;;;;;10.10;7.57;;;;;;;6.21;nan;102928.91;5012885;28;20042;-50
2022/04/29 03:48:16;;;;;;;15.80;7.68;;;;;;;5.91;nan;102867.31;5032507;28;20128;-50
2022/04/29 03:50:41;;;;;;;13.93;7.70;;;;;;;6.31;nan;102935.16;5033778;28;20125;-48
2022/04/29 03:53:07;;;;;;;17.20;8.45;;;;;;;6.32;nan;102929.09;5033659;28;20438;-50
2022/04/29 03:55:33;;;;;;;15.57;7.68;;;;;;;6.30;nan;102920.34;5033579;28;20046;-50
2022/04/29 03:57:59;;;;;;;12.05;7.43;;;;;;;5.85;nan;102836.72;5028748;28;20032;-53
2022/04/29 04:00:29;;;;;;;12.00;7.75;;;;;;;6.29;nan;102908.13;5033638;28;20108;-47
2022/04/29 04:02:54;;;;;;;12.13;7.35;;;;;;;6.29;nan;102904.63;5045013;28;20068;-48
2022/04/29 04:05:20;;;;;;;14.98;8.27;;;;;;;6.08;nan;102877.22;5033557;28;20065;-47
2022/04/29 04:07:45;;;;;;;9.40;7.43;;;;;;;5.88;nan;102844.63;5033617;28;20063;-48
2022/04/29 04:10:11;;;;;;;11.75;7.93;;;;;;;5.91;nan;102839.44;5033519;28;20462;-47
2022/04/29 04:12:41;;;;;;;14.15;8.50;;;;;;;6.22;nan;102906.22;5017335;28;20082;-47
2022/04/29 04:15:07;;;;;;;9.60;7.90;;;;;;;5.87;nan;102848.06;5015849;28;20034;-46
2022/04/29 04:17:33;;;;;;;13.90;7.78;;;;;;;6.20;nan;102906.22;5012388;28;20468;-49
2022/04/29 04:19:58;;;;;;;19.17;8.27;;;;;;;5.79;nan;102839.19;5029636;28;20037;-51
2022/04/29 04:22:23;;;;;;;16.73;7.95;;;;;;;5.78;nan;102842.63;5033233;28;20037;-53
2022/04/29 04:24:49;;;;;;;12.77;8.07;;;;;;;6.17;nan;102911.38;5033411;28;20033;-47
2022/04/29 04:27:14;;;;;;;20.13;7.90;;;;;;;5.81;nan;102855.75;5015390;28;20396;-48
2022/04/29 04:29:39;;;;;;;11.70;7.47;;;;;;;5.94;nan;102878.72;5033157;28;20039;-50
2022/04/29 04:32:05;;;;;;;13.20;7.78;;;;;;;6.11;nan;102908.66;5033062;28;20037;-48
2022/04/29 04:37:14;;;;;;;14.95;8.93;;;;;;;6.17;nan;102911.38;5032603;28;20052;-47
2022/04/29 04:39:40;;;;;;;15.68;8.02;;;;;;;5.77;nan;102850.47;5032402;28;20033;-45
2022/04/29 04:42:06;;;;;;;13.15;8.40;;;;;;;6.09;nan;102899.91;5032934;28;20038;-46
2022/04/29 04:44:31;;;;;;;11.52;7.60;;;;;;;6.20;nan;102918.41;5032759;28;20034;-46
2022/04/29 04:46:56;;;;;;;17.25;8.35;;;;;;;6.23;nan;102915.84;5032756;28;20037;-51
2022/04/29 04:49:22;;;;;;;12.70;7.70;;;;;;;6.25;nan;102924.59;5032862;28;20247;-49
2022/04/29 04:51:47;;;;;;;24.13;8.75;;;;;;;6.27;nan;102927.25;5015288;28;20036;-45
2022/04/29 04:54:12;;;;;;;14.10;7.78;;;;;;;6.27;nan;102929.88;5033158;28;20406;-49
2022/04/29 04:56:38;;;;;;;15.55;8.55;;;;;;;5.79;nan;102843.50;5032846;28;20037;-48
2022/04/29 04:59:04;;;;;;;13.15;8.63;;;;;;;6.24;nan;102930.69;5033005;28;20034;-46
2022/04/29 05:01:29;;;;;;;11.40;7.80;;;;;;;6.25;nan;102931.59;5032814;28;20567;-47
2022/04/29 05:03:54;;;;;;;14.43;8.30;;;;;;;5.85;nan;102857.63;5032456;28;20544;-50
2022/04/29 05:06:20;;;;;;;15.80;7.63;;;;;;;5.82;nan;102867.97;5032579;28;20129;-46
2022/04/29 05:08:45;;;;;;;18.60;8.00;;;;;;;5.95;nan;102883.09;5031515;28;20029;-48
2022/04/29 05:11:11;;;;;;;11.48;6.95;;;;;;;6.24;nan;102935.94;5033004;28;20037;-50
2022/04/29 05:13:36;;;;;;;18.13;8.38;;;;;;;6.31;nan;102950.84;5032732;28;20041;-49
2022/04/29 05:16:01;;;;;;;12.00;7.68;;;;;;;5.91;nan;102870.81;5014814;28;20037;-48
2022/04/29 05:18:27;;;;;;;13.50;8.25;;;;;;;6.34;nan;102929.09;5032418;28;20036;-46
2022/04/29 05:20:52;;;;;;;22.02;7.50;;;;;;;6.41;nan;102936.22;5032925;28;20045;-49
2022/04/29 05:23:17;;;;;;;12.15;7.43;;;;;;;6.44;nan;102934.56;5032703;28;20049;-48
2022/04/29 05:25:43;;;;;;;13.57;7.93;;;;;;;6.07;nan;102867.59;5032519;28;20452;-47
2022/04/29 05:28:08;;;;;;;16.00;8.02;;;;;;;6.50;nan;102923.31;5032450;28;20160;-49
2022/04/29 05:30:34;;;;;;;16.98;8.57;;;;;;;6.63;nan;102927.88;5014898;28;20406;-50
2022/04/29 05:33:00;;;;;;;13.43;7.57;;;;;;;6.45;nan;102870.88;5014785;28;20075;-47
2022/04/29 05:35:25;;;;;;;14.55;7.43;;;;;;;6.49;nan;102871.84;5014534;28;20064;-48
2022/04/29 05:37:51;;;;;;;16.17;7.97;;;;;;;6.95;nan;102931.91;5013646;28;20053;-50
2022/04/29 05:43:01;;;;;;;10.98;6.70;;;;;;;6.79;nan;102872.34;5017563;28;20128;-48
2022/04/29 05:45:26;;;;;;;15.43;6.80;;;;;;;6.94;nan;102898.75;5013959;28;20033;-54
2022/04/29 05:47:52;;;;;;;12.10;6.57;;;;;;;7.28;nan;102948.16;5032110;28;20504;-56
2022/04/29 05:50:17;;;;;;;13.20;8.02;;;;;;;6.94;nan;102887.41;5014383;28;20128;-50
2022/04/29 05:52:42;;;;;;;11.07;6.97;;;;;;;7.32;nan;102942.09;5031144;28;20036;-48
2022/04/29 05:55:08;;;;;;;14.60;7.28;;;;;;;7.54;nan;102964.22;5031794;28;20029;-48
2022/04/29 05:57:34;;;;;;;10.27;6.07;;;;;;;7.54;nan;102969.47;5031610;28;20175;-48
2022/04/29 05:59:59;;;;;;;13.27;6.72;;;;;;;7.51;nan;102961.56;5031677;28;20037;-48
2022/04/29 06:02:25;;;;;;;10.77;6.40;;;;;;;7.16;nan;102897.31;5031653;28;20041;-49
2022/04/29 06:04:51;;;;;;;15.98;6.70;;;;;;;7.65;nan;102960.00;5014211;28;20163;-47
2022/04/29 06:07:16;;;;;;;10.40;6.28;;;;;;;7.35;nan;102899.34;5019097;28;20151;-53
2022/04/29 06:09:42;;;;;;;16.15;7.28;;;;;;;7.73;nan;102966.25;5013799;28;20042;-48
2022/04/29 06:12:08;;;;;;;12.10;6.43;;;;;;;7.78;nan;102979.41;5031812;28;20037;-50
2022/04/29 06:14:35;;;;;;;11.60;6.05;;;;;;;7.85;nan;102962.91;5013720;28;20161;-48
2022/04/29 06:17:00;;;;;;;9.93;5.45;;;;;;;7.57;nan;102905.72;5043765;28;20365;-48
2022/04/29 06:19:25;;;;;;;19.13;7.07;;;;;;;7.91;nan;102960.31;5031675;28;20037;-48
2022/04/29 06:21:51;;;;;;;8.43;5.32;;;;;;;8.05;nan;102978.88;5031298;28;20120;-46
2022/04/29 06:24:16;;;;;;;13.77;6.35;;;;;;;7.75;nan;102913.81;5031535;28;20121;-49
2022/04/29 06:26:42;;;;;;;13.38;6.07;;;;;;;8.11;nan;102966.72;5031534;28;20033;-48
2022/04/29 06:29:07;;;;;;;14.38;6.25;;;;;;;8.30;nan;102989.69;5031405;28;20439;-47
2022/04/29 06:31:33;;;;;;;9.75;6.53;;;;;;;8.03;nan;102929.00;5031622;28;20029;-52
2022/04/29 06:33:58;;;;;;;13.43;6.47;;;;;;;8.51;nan;103003.91;5030000;28;20065;-50
2022/04/29 06:36:23;;;;;;;14.93;6.80;;;;;;;8.61;nan;102990.88;5031225;28;20041;-49
2022/04/29 06:38:49;;;;;;;13.65;6.43;;;;;;;8.35;nan;102924.13;5031327;28;20117;-49
2022/04/29 06:41:14;;;;;;;12.25;6.53;;;;;;;8.84;nan;102993.75;5031450;28;20022;-47
2022/04/29 06:43:39;;;;;;;10.48;5.95;;;;;;;8.49;nan;102944.38;5031446;28;20491;-49
2022/04/29 06:46:04;;;;;;;10.20;6.07;;;;;;;8.81;nan;103012.97;5018534;28;20041;-47
2022/04/29 06:48:30;;;;;;;14.18;6.75;;;;;;;8.81;nan;103004.22;5031257;28;20439;-51
2022/04/29 06:50:55;;;;;;;11.18;6.93;;;;;;;8.62;nan;102948.03;5031254;28;20438;-52
2022/04/29 06:53:21;;;;;;;9.10;6.18;;;;;;;8.60;nan;102935.75;5031410;28;20080;-49
2022/04/29 06:55:47;;;;;;;8.35;6.28;;;;;;;9.01;nan;102997.38;5013370;28;20048;-46
2022/04/29 06:58:12;;;;;;;13.43;6.15;;;;;;;9.11;nan;103012.34;5031252;28;20061;-48
2022/04/29 07:00:40;;;;;;;10.18;5.90;;;;;;;9.03;nan;103004.41;5031155;28;20102;-50
2022/04/29 07:03:06;;;;;;;13.25;6.32;;;;;;;9.18;nan;103027.31;5032382;28;20042;-49
2022/04/29 07:05:31;;;;;;;14.63;6.15;;;;;;;9.13;nan;102999.22;5034513;28;20235;-50
2022/04/29 07:07:57;;;;;;;12.35;6.22;;;;;;;9.11;nan;103000.97;5033855;28;20048;-52
2022/04/29 07:10:24;;;;;;;12.40;7.13;;;;;;;8.90;nan;102955.25;5033672;28;20060;-45
2022/04/29 07:12:49;;;;;;;13.82;6.43;;;;;;;8.89;nan;102950.88;5034461;28;20104;-47
2022/04/29 07:15:15;;;;;;;8.60;5.65;;;;;;;8.71;nan;102923.59;5032416;28;20132;-47
2022/04/29 07:17:44;;;;;;;12.13;6.00;;;;;;;9.16;nan;103000.16;5034407;28;20037;-48
2022/04/29 07:20:11;;;;;;;9.88;6.28;;;;;;;9.18;nan;103003.66;5032786;28;20104;-52
2022/04/29 07:22:52;;;;;;;13.32;6.50;;;;;;;9.19;nan;102989.66;5038598;28;20048;-47
2022/04/29 07:25:19;;;;;;;;;;;;;;;9.17;nan;102983.50;5034163;28;20087;-48
2022/04/29 07:27:44;;;;;;;12.95;6.07;;;;;;;8.78;nan;102910.53;5016959;28;19924;-49
2022/04/29 07:30:11;;;;;;;9.85;6.25;;;;;;;9.05;nan;102986.91;5034309;28;20030;-48
2022/04/29 07:32:37;;;;;;;8.85;5.70;;;;;;;8.43;nan;102927.72;5015756;28;20029;-46
2022/04/29 07:43:14;;;;;;;11.05;5.68;;;;;;;8.54;nan;102935.69;5034273;28;20044;-49
2022/04/29 07:45:42;;;;;;;8.35;5.38;;;;;;;8.88;nan;102978.00;5033964;28;20431;-46
2022/04/29 07:48:08;;;;;;;10.02;6.03;;;;;;;9.12;nan;103002.72;5012708;28;20041;-47
2022/04/29 07:50:33;;;;;;;9.38;5.28;;;;;;;8.79;nan;102909.66;5032821;28;20217;-54
2022/04/29 07:53:00;;;;;;;12.10;5.63;;;;;;;8.76;nan;102874.59;5033792;28;20037;-47
2022/04/29 07:55:25;;;;;;;8.95;5.32;;;;;;;9.20;nan;102922.19;5033964;28;20072;-47
2022/04/29 07:57:51;;;;;;;11.80;5.43;;;;;;;9.69;nan;102989.09;5038982;28;20057;-50
2022/04/29 08:00:17;;;;;;;8.57;5.43;;;;;;;9.28;nan;102931.03;5033382;28;20029;-49
2022/04/29 08:02:43;;;;;;;9.43;5.20;;;;;;;9.48;nan;102946.03;5032983;28;20105;-51
2022/04/29 08:05:08;;;;;;;11.20;5.10;;;;;;;9.37;nan;102938.97;5015485;28;20025;-50
2022/04/29 08:07:33;;;;;;;11.07;5.50;;;;;;;9.29;nan;102923.13;5033793;28;20129;-49
2022/04/29 08:09:59;;;;;;;13.70;5.72;;;;;;;9.69;nan;103005.72;5033488;28;20370;-49
2022/04/29 08:12:26;;;;;;;12.68;5.68;;;;;;;9.58;nan;102999.53;5033265;28;20029;-49
2022/04/29 08:14:52;;;;;;;10.68;5.70;;;;;;;9.63;nan;103008.34;5032412;28;20048;-47
2022/04/29 08:17:19;;;;;;;9.65;4.85;;;;;;;9.58;nan;102991.66;5031835;28;20044;-52
2022/04/29 08:19:45;;;;;;;11.30;5.72;;;;;;;9.72;nan;102991.75;4997015;28;20042;-47
2022/04/29 08:22:11;;;;;;;10.05;4.82;;;;;;;9.76;nan;103004.03;5029562;28;20346;-53
2022/04/29 08:24:36;;;;;;;11.77;5.45;;;;;;;9.61;nan;103002.19;5033117;28;20040;-48
2022/04/29 08:27:02;;;;;;;14.68;5.85;;;;;;;9.18;nan;102937.97;5015439;28;20052;-48
2022/04/29 08:29:27;;;;;;;9.98;6.28;;;;;;;9.32;nan;102973.09;5033246;28;20556;-49
2022/04/29 08:31:53;;;;;;;11.05;5.53;;;;;;;9.23;nan;102959.88;5035547;28;20046;-48
2022/04/29 08:34:19;;;;;;;7.57;5.07;;;;;;;9.63;nan;103009.22;5032874;28;20092;-48
2022/04/29 08:36:44;;;;;;;11.98;5.43;;;;;;;9.70;nan;103002.25;5015037;28;20037;-48
2022/04/29 08:39:09;;;;;;;11.48;5.65;;;;;;;9.66;nan;103007.50;5032812;28;20526;-47
2022/04/29 08:41:38;;;;;;;7.43;5.05;;;;;;;9.63;nan;103013.63;5032839;28;20099;-47
2022/04/29 08:44:07;;;;;;;8.40;5.32;;;;;;;9.52;nan;103016.16;5032662;28;20084;-47
2022/04/29 08:46:33;;;;;;;8.88;5.55;;;;;;;9.56;nan;103030.22;5032730;28;20482;-46
2022/04/29 08:48:59;;;;;;;10.27;5.40;;;;;;;9.49;nan;103013.50;5015114;28;20069;-50
2022/04/29 08:51:25;;;;;;;12.55;5.75;;;;;;;9.38;nan;102967.00;4998799;28;20026;-47
2022/04/29 08:53:50;;;;;;;9.18;5.53;;;;;;;9.34;nan;102955.56;5033073;28;20044;-46
2022/04/29 08:59:01;;;;;;;10.52;5.80;;;;;;;9.41;nan;102962.63;5033081;28;20440;-52
2022/04/29 09:01:26;;;;;;;9.90;6.60;;;;;;;9.32;nan;102949.44;5015047;28;20033;-50
2022/04/29 09:03:52;;;;;;;10.18;6.18;;;;;;;9.46;nan;102965.28;5031407;28;20072;-50
2022/04/29 09:06:22;;;;;;;9.52;5.50;;;;;;;9.92;nan;103042.69;5032658;28;20579;-48
2022/04/29 09:08:48;;;;;;;11.65;6.20;;;;;;;9.94;nan;103022.53;5032841;28;20528;-50
2022/04/29 09:11:26;;;;;;;9.75;5.47;;;;;;;9.80;nan;102998.81;5015277;28;20037;-46
2022/04/29 09:13:52;;;;;;;9.60;5.97;;;;;;;10.01;nan;103016.44;5032623;28;20478;-49
2022/04/29 09:16:18;;;;;;;8.88;5.60;;;;;;;10.14;nan;103024.41;5032567;28;20044;-49
2022/04/29 09:18:44;;;;;;;10.88;5.75;;;;;;;9.91;nan;102980.44;5032558;28;20045;-50
2022/04/29 09:21:11;;;;;;;10.10;5.10;;;;;;;9.89;nan;102966.41;5032620;28;20034;-48
2022/04/29 09:23:38;;;;;;;10.77;5.68;;;;;;;10.23;nan;103034.09;5032281;28;20044;-52
2022/04/29 09:26:05;;;;;;;9.85;5.20;;;;;;;10.13;nan;103016.50;5031008;28;20052;-48
2022/04/29 09:28:34;;;;;;;8.07;4.85;;;;;;;10.26;nan;103001.63;5017513;28;20068;-47
2022/04/29 09:31:00;;;;;;;10.55;6.00;;;;;;;10.45;nan;102990.31;5027603;28;20033;-51
2022/04/29 09:33:26;;;;;;;6.30;4.72;;;;;;;10.45;nan;103001.69;5020469;28;20033;-52
2022/04/29 09:35:53;;;;;;;9.18;4.68;;;;;;;10.36;nan;102985.00;5027889;28;20029;-51
2022/04/29 09:41:04;;;;;;;8.52;3.83;;;;;;;10.58;nan;102999.97;5016554;28;20428;-48
2022/04/29 09:43:44;;;;;;;8.35;4.53;;;;;;;10.43;nan;103016.63;5031907;28;20445;-53
2022/04/29 09:46:16;;;;;;;5.10;3.88;;;;;;;10.21;nan;102943.75;5031729;28;20100;-50
2022/04/29 09:49:03;;;;;;;7.85;4.18;;;;;;;10.50;nan;103006.97;5031579;28;20045;-51
2022/04/29 09:51:49;;;;;;;9.07;4.22;;;;;;;10.44;nan;103020.13;5032099;28;20040;-53
2022/04/29 09:54:25;;;;;;;7.88;3.88;;;;;;;10.49;nan;103013.13;5031871;28;20087;-48
2022/04/29 09:57:06;;;;;;;3.95;3.45;;;;;;;10.58;nan;103014.03;5031569;28;20396;-49
2022/04/29 09:59:54;;;;;;;8.90;4.10;;;;;;;10.74;nan;103015.78;5030486;28;20063;-50
2022/04/29 10:02:23;;;;;;;9.93;4.60;;;;;;;10.77;nan;103019.34;5031588;28;20373;-51
2022/04/29 10:04:50;;;;;;;6.00;3.75;;;;;;;10.62;nan;103018.41;5031150;28;20056;-50
2022/04/29 10:07:17;;;;;;;6.00;4.30;;;;;;;10.66;nan;103006.13;5013458;28;20369;-48
2022/04/29 10:09:47;;;;;;;7.32;5.22;;;;;;;10.84;nan;103010.53;5026799;28;20068;-49
2022/04/29 10:12:15;;;;;;;11.33;5.23;;;;;;;10.73;nan;102997.38;5021325;28;20408;-48
2022/04/29 10:14:42;;;;;;;6.40;3.90;;;;;;;10.76;nan;103004.38;5031714;28;20409;-47
2022/04/29 10:22:53;;;;;;;11.02;4.70;;;;;;;11.56;nan;103009.59;5031522;28;20420;-48
2022/04/29 10:25:21;;;;;;;7.20;4.28;;;;;;;11.35;nan;102992.09;5031602;28;20108;-48
2022/04/29 10:27:48;;;;;;;9.60;4.63;;;;;;;11.32;nan;102966.59;5013793;28;20065;-54
2022/04/29 10:30:15;;;;;;;8.60;4.47;;;;;;;11.86;nan;103017.50;4997118;28;20021;-49
2022/04/29 10:33:02;;;;;;;11.68;5.45;;;;;;;11.75;nan;102969.16;5031321;28;20120;-49
2022/04/29 10:35:43;;;;;;;10.70;5.57;;;;;;;12.12;nan;103036.75;5031353;28;20029;-49
2022/04/29 10:38:38;;;;;;;8.55;4.70;;;;;;;12.21;nan;103025.28;5032812;28;20386;-46
2022/04/29 10:41:06;;;;;;;7.57;4.45;;;;;;;12.15;nan;103014.72;5017192;28;20491;-54
2022/04/29 10:43:36;;;;;;;6.18;4.38;;;;;;;11.68;nan;102944.50;5035084;28;20032;-53
2022/04/29 10:46:04;;;;;;;6.65;4.90;;;;;;;12.05;nan;103019.19;5016125;28;20290;-51
2022/04/29 10:48:37;;;;;;;5.10;4.50;;;;;;;12.07;nan;103020.06;5034915;28;20065;-53
2022/04/29 10:51:09;;;;;;;6.93;4.68;;;;;;;12.44;nan;103020.75;5034757;28;20033;-53
2022/04/29 10:53:38;;;;;;;5.97;4.15;;;;;;;12.50;nan;102973.16;5016337;28;20085;-48
2022/04/29 10:56:32;;;;;;;7.82;4.65;;;;;;;13.25;nan;103013.16;5032518;28;20042;-47
2022/04/29 10:59:06;;;;;;;8.80;4.00;;;;;;;13.60;nan;103018.09;5034620;28;20126;-49
2022/04/29 11:01:33;;;;;;;9.43;4.47;;;;;;;13.48;nan;102963.56;5035027;28;20029;-47
2022/04/29 11:04:05;;;;;;;6.82;4.47;;;;;;;13.61;nan;102957.22;5035510;28;20060;-48
2022/04/29 11:06:44;;;;;;;;;;;;;;;14.19;nan;103018.28;5035160;28;20041;-50
2022/04/29 11:09:30;;;;;;;10.32;4.95;;;;;;;13.99;nan;103023.81;5035107;28;20293;-49
2022/04/29 11:11:56;;;;;;;4.63;3.38;;;;;;;14.20;nan;103020.03;5035009;28;20037;-51
2022/04/29 11:14:22;;;;;;;6.07;4.00;;;;;;;14.62;nan;103006.22;5017123;28;20029;-49
2022/04/29 11:16:56;;;;;;;5.25;4.10;;;;;;;14.92;nan;103028.72;5016931;28;20048;-48
2022/04/29 11:19:22;;;;;;;4.38;3.45;;;;;;;15.00;nan;103029.47;5017151;28;20499;-50
2022/04/29 11:24:50;;;;;;;7.40;4.10;;;;;;;15.64;nan;102983.28;5034664;28;20037;-46
2022/04/29 11:27:25;;;;;;;6.78;4.07;;;;;;;16.37;nan;103008.31;5034619;28;20038;-46
2022/04/29 11:29:53;;;;;;;10.05;3.80;;;;;;;17.09;nan;103043.88;5034790;28;20053;-47
2022/04/29 11:32:23;;;;;;;5.90;3.55;;;;;;;17.48;nan;103036.66;5034676;28;20037;-47
2022/04/29 11:34:52;;;;;;;7.25;3.72;;;;;;;18.06;nan;102989.78;5034670;28;20370;-48
2022/04/29 11:37:28;;;;;;;6.85;4.20;;;;;;;17.86;nan;103039.16;5034040;28;20416;-47
2022/04/29 11:40:00;;;;;;;6.88;4.10;;;;;;;17.50;nan;103025.94;5016682;28;20392;-48
2022/04/29 11:42:26;;;;;;;4.57;3.50;;;;;;;17.41;nan;102984.47;5034596;28;20594;-50
2022/04/29 11:44:51;;;;;;;6.65;4.00;;;;;;;16.29;nan;102974.81;5034316;28;20071;-47
2022/04/29 11:47:23;;;;;;;6.65;4.47;;;;;;;15.46;nan;103032.25;5016583;28;20033;-49
2022/04/29 11:49:48;;;;;;;7.80;3.92;;;;;;;15.12;nan;103026.63;5033225;28;20029;-47
2022/04/29 11:52:22;;;;;;;8.10;4.30;;;;;;;14.90;nan;103017.28;5034085;28;20040;-45
2022/04/29 11:54:59;;;;;;;5.68;3.80;;;;;;;14.93;nan;103014.59;5033204;28;20036;-49
2022/04/29 11:57:27;;;;;;;6.10;3.92;;;;;;;14.75;nan;102953.88;5034028;28;20033;-52
2022/04/29 11:59:52;;;;;;;6.03;4.18;;;;;;;15.34;nan;102958.16;5034172;28;20032;-50
2022/04/29 12:02:20;;;;;;;6.10;3.78;;;;;;;15.40;nan;102954.50;5033817;28;20140;-48
2022/04/29 12:05:03;;;;;;;5.00;3.85;;;;;;;15.42;nan;102955.34;5016092;28;20039;-51
2022/04/29 12:07:38;;;;;;;8.13;4.45;;;;;;;15.93;nan;103007.47;5033793;28;20030;-48
2022/04/29 12:10:18;;;;;;;4.95;4.32;;;;;;;16.33;nan;103007.50;5032224;28;20045;-51
2022/04/29 12:12:47;;;;;;;7.57;4.72;;;;;;;16.33;nan;102962.31;5033581;28;20388;-47